sensor_id;sensor_type;location;lat;lon;timestamp;pressure;altitude;pressure_sealevel;temperature;humidity
13312;BME280;34033;48.672;9.376;2024-01-11T00:02:16;99511.97;;;-1.00;69.84
13312;BME280;34033;48.672;9.376;2024-01-11T00:04:42;99501.78;;;-0.99;69.52
13312;BME280;34033;48.672;9.376;2024-01-11T00:07:09;99505.88;;;-0.97;69.24
13312;BME280;34033;48.672;9.376;2024-01-11T00:09:42;99506.22;;;-1.03;69.09
13312;BME280;34033;48.672;9.376;2024-01-11T00:12:08;99507.72;;;-1.16;69.32
13312;BME280;34033;48.672;9.376;2024-01-11T00:14:33;99508.56;;;-1.20;69.92
13312;BME280;34033;48.672;9.376;2024-01-11T00:16:58;99505.88;;;-1.26;70.20
13312;BME280;34033;48.672;9.376;2024-01-11T00:19:24;99512.72;;;-1.23;70.59
13312;BME280;34033;48.672;9.376;2024-01-11T00:21:49;99519.84;;;-1.22;70.68
13312;BME280;34033;48.672;9.376;2024-01-11T00:24:14;99514.88;;;-1.20;71.42
13312;BME280;34033;48.672;9.376;2024-01-11T00:26:40;99521.22;;;-1.24;71.35
13312;BME280;34033;48.672;9.376;2024-01-11T00:29:07;99525.63;;;-1.23;70.44
13312;BME280;34033;48.672;9.376;2024-01-11T00:31:32;99531.88;;;-1.18;70.89
13312;BME280;34033;48.672;9.376;2024-01-11T00:33:57;99526.94;;;-1.16;70.75
13312;BME280;34033;48.672;9.376;2024-01-11T00:36:23;99528.84;;;-1.16;69.26
13312;BME280;34033;48.672;9.376;2024-01-11T00:38:49;99520.31;;;-1.15;69.18
13312;BME280;34033;48.672;9.376;2024-01-11T00:41:14;99534.31;;;-1.11;69.34
13312;BME280;34033;48.672;9.376;2024-01-11T00:43:39;99523.59;;;-1.13;69.45
13312;BME280;34033;48.672;9.376;2024-01-11T00:46:05;99537.09;;;-1.16;69.29
13312;BME280;34033;48.672;9.376;2024-01-11T00:48:30;99532.44;;;-1.16;69.08
13312;BME280;34033;48.672;9.376;2024-01-11T00:50:55;99534.34;;;-1.16;68.44
13312;BME280;34033;48.672;9.376;2024-01-11T00:53:20;99521.97;;;-1.14;68.72
13312;BME280;34033;48.672;9.376;2024-01-11T00:55:46;99520.88;;;-1.13;68.90
13312;BME280;34033;48.672;9.376;2024-01-11T00:58:11;99534.59;;;-1.13;68.78
13312;BME280;34033;48.672;9.376;2024-01-11T01:00:36;99528.84;;;-1.16;68.94
13312;BME280;34033;48.672;9.376;2024-01-11T01:03:02;99522.56;;;-1.17;68.32
13312;BME280;34033;48.672;9.376;2024-01-11T01:05:28;99525.28;;;-1.17;68.52
13312;BME280;34033;48.672;9.376;2024-01-11T01:07:53;99528.59;;;-1.20;68.78
13312;BME280;34033;48.672;9.376;2024-01-11T01:10:18;99526.44;;;-1.23;68.34
13312;BME280;34033;48.672;9.376;2024-01-11T01:12:44;99525.34;;;-1.22;67.95
13312;BME280;34033;48.672;9.376;2024-01-11T01:15:09;99525.34;;;-1.22;67.31
13312;BME280;34033;48.672;9.376;2024-01-11T01:17:34;99534.09;;;-1.20;68.04
13312;BME280;34033;48.672;9.376;2024-01-11T01:20:00;99525.34;;;-1.22;68.49
13312;BME280;34033;48.672;9.376;2024-01-11T01:22:25;99525.84;;;-1.20;67.33
13312;BME280;34033;48.672;9.376;2024-01-11T01:24:50;99525.91;;;-1.25;69.15
13312;BME280;34033;48.672;9.376;2024-01-11T01:27:16;99530.00;;;-1.22;68.36
13312;BME280;34033;48.672;9.376;2024-01-11T01:29:41;99527.00;;;-1.26;69.22
13312;BME280;34033;48.672;9.376;2024-01-11T01:32:07;99519.91;;;-1.32;69.18
13312;BME280;34033;48.672;9.376;2024-01-11T01:34:32;99533.38;;;-1.36;69.32
13312;BME280;34033;48.672;9.376;2024-01-11T01:36:57;99526.81;;;-1.35;69.14
13312;BME280;34033;48.672;9.376;2024-01-11T01:39:23;99536.38;;;-1.32;68.30
13312;BME280;34033;48.672;9.376;2024-01-11T01:41:48;99535.84;;;-1.34;68.52
13312;BME280;34033;48.672;9.376;2024-01-11T01:44:13;99531.69;;;-1.32;68.96
13312;BME280;34033;48.672;9.376;2024-01-11T01:46:39;99530.88;;;-1.27;68.18
13312;BME280;34033;48.672;9.376;2024-01-11T01:49:04;99542.94;;;-1.28;67.56
13312;BME280;34033;48.672;9.376;2024-01-11T01:51:31;99538.56;;;-1.29;67.77
13312;BME280;34033;48.672;9.376;2024-01-11T01:53:58;99547.94;;;-1.35;67.43
13312;BME280;34033;48.672;9.376;2024-01-11T01:56:24;99549.06;;;-1.41;67.34
13312;BME280;34033;48.672;9.376;2024-01-11T01:58:52;99553.38;;;-1.30;66.73
13312;BME280;34033;48.672;9.376;2024-01-11T02:01:19;99567.38;;;-1.32;68.23
13312;BME280;34033;48.672;9.376;2024-01-11T02:03:46;99556.69;;;-1.33;68.39
13312;BME280;34033;48.672;9.376;2024-01-11T02:06:13;99560.53;;;-1.34;68.40
13312;BME280;34033;48.672;9.376;2024-01-11T02:08:40;99550.66;;;-1.35;68.46
13312;BME280;34033;48.672;9.376;2024-01-11T02:11:07;99561.63;;;-1.35;67.91
13312;BME280;34033;48.672;9.376;2024-01-11T02:13:32;99555.59;;;-1.37;67.74
13312;BME280;34033;48.672;9.376;2024-01-11T02:15:57;99558.13;;;-1.41;68.30
13312;BME280;34033;48.672;9.376;2024-01-11T02:18:23;99563.56;;;-1.36;67.60
13312;BME280;34033;48.672;9.376;2024-01-11T02:20:48;99552.59;;;-1.36;68.17
13312;BME280;34033;48.672;9.376;2024-01-11T02:23:21;99558.06;;;-1.36;67.21
13312;BME280;34033;48.672;9.376;2024-01-11T02:25:49;99558.91;;;-1.35;67.08
13312;BME280;34033;48.672;9.376;2024-01-11T02:28:14;99564.97;;;-1.38;66.61
13312;BME280;34033;48.672;9.376;2024-01-11T02:30:40;99563.31;;;-1.39;67.10
13312;BME280;34033;48.672;9.376;2024-01-11T02:33:05;99561.09;;;-1.37;66.88
13312;BME280;34033;48.672;9.376;2024-01-11T02:35:31;99554.22;;;-1.35;67.26
13312;BME280;34033;48.672;9.376;2024-01-11T02:37:57;99562.75;;;-1.36;67.61
13312;BME280;34033;48.672;9.376;2024-01-11T02:40:25;99560.03;;;-1.41;67.43
13312;BME280;34033;48.672;9.376;2024-01-11T02:42:51;99567.75;;;-1.48;67.51
13312;BME280;34033;48.672;9.376;2024-01-11T02:45:16;99571.03;;;-1.46;67.50
13312;BME280;34033;48.672;9.376;2024-01-11T02:47:41;99568.56;;;-1.48;67.27
13312;BME280;34033;48.672;9.376;2024-01-11T02:50:07;99566.09;;;-1.44;67.22
13312;BME280;34033;48.672;9.376;2024-01-11T02:52:33;99574.84;;;-1.42;66.93
13312;BME280;34033;48.672;9.376;2024-01-11T02:54:59;99568.53;;;-1.43;67.26
13312;BME280;34033;48.672;9.376;2024-01-11T02:57:24;99567.19;;;-1.45;67.25
13312;BME280;34033;48.672;9.376;2024-01-11T02:59:51;99563.09;;;-1.48;67.14
13312;BME280;34033;48.672;9.376;2024-01-11T03:02:16;99566.69;;;-1.52;67.33
13312;BME280;34033;48.672;9.376;2024-01-11T03:04:42;99555.75;;;-1.57;66.70
13312;BME280;34033;48.672;9.376;2024-01-11T03:07:07;99555.78;;;-1.62;66.65
13312;BME280;34033;48.672;9.376;2024-01-11T03:09:33;99559.13;;;-1.65;66.44
13312;BME280;34033;48.672;9.376;2024-01-11T03:11:59;99554.19;;;-1.69;65.69
13312;BME280;34033;48.672;9.376;2024-01-11T03:14:24;99554.22;;;-1.74;66.61
13312;BME280;34033;48.672;9.376;2024-01-11T03:16:49;99553.94;;;-1.72;66.53
13312;BME280;34033;48.672;9.376;2024-01-11T03:19:15;99550.91;;;-1.71;67.30
13312;BME280;34033;48.672;9.376;2024-01-11T03:21:42;99548.47;;;-1.72;67.51
13312;BME280;34033;48.672;9.376;2024-01-11T03:24:08;99542.16;;;-1.73;67.48
13312;BME280;34033;48.672;9.376;2024-01-11T03:26:33;99542.97;;;-1.72;68.12
13312;BME280;34033;48.672;9.376;2024-01-11T03:28:58;99536.94;;;-1.74;67.61
13312;BME280;34033;48.672;9.376;2024-01-11T03:31:24;99541.63;;;-1.80;67.46
13312;BME280;34033;48.672;9.376;2024-01-11T03:33:49;99542.78;;;-1.91;68.28
13312;BME280;34033;48.672;9.376;2024-01-11T03:36:14;99534.34;;;-1.99;69.12
13312;BME280;34033;48.672;9.376;2024-01-11T03:38:40;99541.19;;;-1.97;69.08
13312;BME280;34033;48.672;9.376;2024-01-11T03:41:09;99532.13;;;-1.97;69.40
13312;BME280;34033;48.672;9.376;2024-01-11T03:43:35;99536.28;;;-2.00;69.36
13312;BME280;34033;48.672;9.376;2024-01-11T03:46:00;99539.88;;;-2.09;69.70
13312;BME280;34033;48.672;9.376;2024-01-11T03:48:26;99538.25;;;-2.11;70.04
13312;BME280;34033;48.672;9.376;2024-01-11T03:50:51;99533.03;;;-2.12;70.41
13312;BME280;34033;48.672;9.376;2024-01-11T03:53:17;99534.69;;;-2.11;70.13
13312;BME280;34033;48.672;9.376;2024-01-11T03:55:42;99532.50;;;-2.14;70.12
13312;BME280;34033;48.672;9.376;2024-01-11T03:58:07;99532.53;;;-2.24;69.60
13312;BME280;34033;48.672;9.376;2024-01-11T04:00:33;99531.50;;;-2.38;70.01
13312;BME280;34033;48.672;9.376;2024-01-11T04:02:58;99523.59;;;-2.45;70.07
13312;BME280;34033;48.672;9.376;2024-01-11T04:05:24;99527.69;;;-2.53;70.72
13312;BME280;34033;48.672;9.376;2024-01-11T04:07:49;99529.34;;;-2.46;70.49
13312;BME280;34033;48.672;9.376;2024-01-11T04:10:17;99525.47;;;-1.81;97.96
13312;BME280;34033;48.672;9.376;2024-01-11T04:12:43;99532.47;;;-2.09;89.38
13312;BME280;34033;48.672;9.376;2024-01-11T04:15:08;99532.50;;;-2.14;78.97
13312;BME280;34033;48.672;9.376;2024-01-11T04:17:36;99526.44;;;-2.06;75.02
13312;BME280;34033;48.672;9.376;2024-01-11T04:20:03;99531.69;;;-1.71;72.76
13312;BME280;34033;48.672;9.376;2024-01-11T04:22:29;99533.72;;;-1.42;70.83
13312;BME280;34033;48.672;9.376;2024-01-11T04:24:55;99536.81;;;-1.20;69.85
13312;BME280;34033;48.672;9.376;2024-01-11T04:27:20;99535.84;;;-1.00;68.16
13312;BME280;34033;48.672;9.376;2024-01-11T04:29:45;99532.47;;;-0.92;67.31
13312;BME280;34033;48.672;9.376;2024-01-11T04:32:10;99531.25;;;-0.81;66.08
13312;BME280;34033;48.672;9.376;2024-01-11T04:34:36;99531.16;;;-0.71;65.41
13312;BME280;34033;48.672;9.376;2024-01-11T04:37:01;99533.50;;;-0.59;64.26
13312;BME280;34033;48.672;9.376;2024-01-11T04:39:26;99530.47;;;-0.58;64.12
13312;BME280;34033;48.672;9.376;2024-01-11T04:41:52;99534.00;;;-0.52;63.46
13312;BME280;34033;48.672;9.376;2024-01-11T04:44:17;99528.97;;;-0.45;63.14
13312;BME280;34033;48.672;9.376;2024-01-11T04:46:43;99530.50;;;-0.34;64.29
13312;BME280;34033;48.672;9.376;2024-01-11T04:49:08;99535.38;;;-0.07;68.10
13312;BME280;34033;48.672;9.376;2024-01-11T04:51:34;99527.53;;;0.05;65.79
13312;BME280;34033;48.672;9.376;2024-01-11T04:53:59;99526.22;;;0.21;63.17
13312;BME280;34033;48.672;9.376;2024-01-11T04:56:25;99534.97;;;0.23;61.84
13312;BME280;34033;48.672;9.376;2024-01-11T04:58:51;99532.28;;;0.18;60.76
13312;BME280;34033;48.672;9.376;2024-01-11T05:01:17;99535.59;;;-0.04;60.37
13312;BME280;34033;48.672;9.376;2024-01-11T05:03:45;99529.78;;;-0.21;60.74
13312;BME280;34033;48.672;9.376;2024-01-11T05:06:18;99540.41;;;-0.38;60.89
13312;BME280;34033;48.672;9.376;2024-01-11T05:08:44;99532.78;;;-0.41;61.47
13312;BME280;34033;48.672;9.376;2024-01-11T05:11:19;99534.53;;;-0.50;60.81
13312;BME280;34033;48.672;9.376;2024-01-11T05:13:45;99539.59;;;-0.62;61.74
13312;BME280;34033;48.672;9.376;2024-01-11T05:16:26;99535.59;;;-0.75;61.85
13312;BME280;34033;48.672;9.376;2024-01-11T05:18:53;99536.19;;;-0.78;61.46
13312;BME280;34033;48.672;9.376;2024-01-11T05:21:19;99530.44;;;-0.81;61.32
13312;BME280;34033;48.672;9.376;2024-01-11T05:23:45;99540.09;;;-0.84;61.50
13312;BME280;34033;48.672;9.376;2024-01-11T05:26:10;99536.38;;;-0.98;61.80
13312;BME280;34033;48.672;9.376;2024-01-11T05:28:36;99542.94;;;-0.99;61.60
13312;BME280;34033;48.672;9.376;2024-01-11T05:31:05;99544.31;;;-0.97;62.18
13312;BME280;34033;48.672;9.376;2024-01-11T05:33:31;99544.38;;;-1.02;62.07
13312;BME280;34033;48.672;9.376;2024-01-11T05:35:56;99556.31;;;-1.16;62.07
13312;BME280;34033;48.672;9.376;2024-01-11T05:38:22;99561.59;;;-1.30;62.34
13312;BME280;34033;48.672;9.376;2024-01-11T05:40:47;99561.47;;;-1.15;62.87
13312;BME280;34033;48.672;9.376;2024-01-11T05:43:12;99564.63;;;-0.98;62.36
13312;BME280;34033;48.672;9.376;2024-01-11T05:45:38;99569.53;;;-0.90;62.43
13312;BME280;34033;48.672;9.376;2024-01-11T05:48:03;99577.16;;;-0.87;62.50
13312;BME280;34033;48.672;9.376;2024-01-11T05:50:31;99571.56;;;-0.76;61.69
13312;BME280;34033;48.672;9.376;2024-01-11T05:52:56;99584.09;;;-0.65;62.02
13312;BME280;34033;48.672;9.376;2024-01-11T05:55:22;99580.75;;;-0.57;61.45
13312;BME280;34033;48.672;9.376;2024-01-11T05:57:48;99580.69;;;-0.52;61.12
13312;BME280;34033;48.672;9.376;2024-01-11T06:00:13;99578.75;;;-0.52;61.08
13312;BME280;34033;48.672;9.376;2024-01-11T06:02:39;99587.78;;;-0.46;60.51
13312;BME280;34033;48.672;9.376;2024-01-11T06:05:08;99595.13;;;-0.42;59.74
13312;BME280;34033;48.672;9.376;2024-01-11T06:07:33;99603.09;;;-0.40;60.00
13312;BME280;34033;48.672;9.376;2024-01-11T06:09:58;99592.09;;;-0.40;59.64
13312;BME280;34033;48.672;9.376;2024-01-11T06:12:24;99591.56;;;-0.42;60.10
13312;BME280;34033;48.672;9.376;2024-01-11T06:14:49;99590.03;;;-0.53;59.94
13312;BME280;34033;48.672;9.376;2024-01-11T06:17:14;99593.47;;;-0.66;59.73
13312;BME280;34033;48.672;9.376;2024-01-11T06:19:40;99601.25;;;-0.78;60.23
13312;BME280;34033;48.672;9.376;2024-01-11T06:22:05;99602.16;;;-0.88;60.55
13312;BME280;34033;48.672;9.376;2024-01-11T06:24:31;99608.56;;;-0.98;60.76
13312;BME280;34033;48.672;9.376;2024-01-11T06:26:56;99593.84;;;-1.12;60.92
13312;BME280;34033;48.672;9.376;2024-01-11T06:29:22;99591.19;;;-1.22;61.12
13312;BME280;34033;48.672;9.376;2024-01-11T06:31:47;99590.09;;;-1.26;61.56
13312;BME280;34033;48.672;9.376;2024-01-11T06:34:12;99571.50;;;-1.34;61.02
13312;BME280;34033;48.672;9.376;2024-01-11T06:36:37;99583.69;;;-1.50;61.27
13312;BME280;34033;48.672;9.376;2024-01-11T06:39:03;99591.88;;;-1.45;61.53
13312;BME280;34033;48.672;9.376;2024-01-11T06:41:29;99595.19;;;-1.48;62.10
13312;BME280;34033;48.672;9.376;2024-01-11T06:43:54;99611.56;;;-1.33;62.85
13312;BME280;34033;48.672;9.376;2024-01-11T06:46:20;99607.69;;;-1.32;61.49
13312;BME280;34033;48.672;9.376;2024-01-11T06:48:47;99601.94;;;-1.31;61.53
13312;BME280;34033;48.672;9.376;2024-01-11T06:51:16;99593.16;;;-1.28;62.17
13312;BME280;34033;48.672;9.376;2024-01-11T06:53:41;99590.72;;;-1.34;62.22
13312;BME280;34033;48.672;9.376;2024-01-11T06:56:17;99599.47;;;-1.32;62.36
13312;BME280;34033;48.672;9.376;2024-01-11T06:58:43;99600.13;;;-1.45;62.54
13312;BME280;34033;48.672;9.376;2024-01-11T07:01:09;99595.69;;;-1.41;62.32
13312;BME280;34033;48.672;9.376;2024-01-11T07:03:34;99602.22;;;-1.32;62.05
13312;BME280;34033;48.672;9.376;2024-01-11T07:06:00;99624.06;;;-1.17;62.31
13312;BME280;34033;48.672;9.376;2024-01-11T07:08:25;99617.41;;;-1.06;61.78
13312;BME280;34033;48.672;9.376;2024-01-11T07:10:50;99616.75;;;-0.93;61.54
13312;BME280;34033;48.672;9.376;2024-01-11T07:13:16;99623.19;;;-1.07;61.26
13312;BME280;34033;48.672;9.376;2024-01-11T07:15:45;99629.63;;;-1.27;60.26
13312;BME280;34033;48.672;9.376;2024-01-11T07:18:10;99639.59;;;-1.41;61.29
13312;BME280;34033;48.672;9.376;2024-01-11T07:20:35;99635.72;;;-1.35;61.64
13312;BME280;34033;48.672;9.376;2024-01-11T07:23:01;99645.50;;;-1.24;61.93
13312;BME280;34033;48.672;9.376;2024-01-11T07:25:26;99642.47;;;-1.17;61.63
13312;BME280;34033;48.672;9.376;2024-01-11T07:27:52;99648.78;;;-1.17;60.91
13312;BME280;34033;48.672;9.376;2024-01-11T07:30:17;99634.56;;;-1.29;60.83
13312;BME280;34033;48.672;9.376;2024-01-11T07:32:45;99625.91;;;-1.46;60.48
13312;BME280;34033;48.672;9.376;2024-01-11T07:35:11;99627.91;;;-1.62;61.79
13312;BME280;34033;48.672;9.376;2024-01-11T07:37:37;99629.56;;;-1.66;61.53
13312;BME280;34033;48.672;9.376;2024-01-11T07:40:03;99629.22;;;-1.54;62.63
13312;BME280;34033;48.672;9.376;2024-01-11T07:42:29;99639.31;;;-1.40;62.93
13312;BME280;34033;48.672;9.376;2024-01-11T07:44:54;99635.97;;;-1.37;62.18
13312;BME280;34033;48.672;9.376;2024-01-11T07:47:20;99650.78;;;-1.33;61.62
13312;BME280;34033;48.672;9.376;2024-01-11T07:49:45;99654.59;;;-1.29;61.67
13312;BME280;34033;48.672;9.376;2024-01-11T07:52:10;99662.25;;;-1.26;61.39
13312;BME280;34033;48.672;9.376;2024-01-11T07:54:36;99662.47;;;-1.12;61.70
13312;BME280;34033;48.672;9.376;2024-01-11T07:57:01;99663.53;;;-1.08;61.78
13312;BME280;34033;48.672;9.376;2024-01-11T07:59:32;99658.03;;;-1.08;60.99
13312;BME280;34033;48.672;9.376;2024-01-11T08:01:57;99655.56;;;-1.09;61.59
13312;BME280;34033;48.672;9.376;2024-01-11T08:04:23;99667.56;;;-0.95;61.08
13312;BME280;34033;48.672;9.376;2024-01-11T08:06:48;99667.19;;;-0.83;60.80
13312;BME280;34033;48.672;9.376;2024-01-11T08:09:13;99677.81;;;-0.72;61.18
13312;BME280;34033;48.672;9.376;2024-01-11T08:11:39;99691.78;;;-0.68;61.71
13312;BME280;34033;48.672;9.376;2024-01-11T08:14:06;99690.94;;;-0.64;61.39
13312;BME280;34033;48.672;9.376;2024-01-11T08:16:31;99698.03;;;-0.58;59.90
13312;BME280;34033;48.672;9.376;2024-01-11T08:18:56;99707.03;;;-0.52;60.19
13312;BME280;34033;48.672;9.376;2024-01-11T08:21:22;99714.41;;;-0.48;59.78
13312;BME280;34033;48.672;9.376;2024-01-11T08:23:47;99709.16;;;-0.44;61.04
13312;BME280;34033;48.672;9.376;2024-01-11T08:26:14;99697.38;;;-0.50;60.45
13312;BME280;34033;48.672;9.376;2024-01-11T08:28:41;99698.56;;;-0.56;60.53
13312;BME280;34033;48.672;9.376;2024-01-11T08:31:07;99706.84;;;-0.61;60.18
13312;BME280;34033;48.672;9.376;2024-01-11T08:33:33;99711.75;;;-0.58;60.31
13312;BME280;34033;48.672;9.376;2024-01-11T08:35:58;99712.50;;;-0.47;60.18
13312;BME280;34033;48.672;9.376;2024-01-11T08:38:24;99721.28;;;-0.45;60.36
13312;BME280;34033;48.672;9.376;2024-01-11T08:40:50;99719.53;;;-0.36;60.24
13312;BME280;34033;48.672;9.376;2024-01-11T08:43:15;99717.53;;;-0.25;60.01
13312;BME280;34033;48.672;9.376;2024-01-11T08:45:40;99720.28;;;-0.25;60.24
13312;BME280;34033;48.672;9.376;2024-01-11T08:48:06;99731.03;;;-0.29;60.47
13312;BME280;34033;48.672;9.376;2024-01-11T08:50:31;99722.47;;;-0.27;60.53
13312;BME280;34033;48.672;9.376;2024-01-11T08:52:58;99717.91;;;-0.37;59.83
13312;BME280;34033;48.672;9.376;2024-01-11T08:55:23;99727.34;;;-0.48;60.13
13312;BME280;34033;48.672;9.376;2024-01-11T08:57:49;99732.00;;;-0.49;60.25
13312;BME280;34033;48.672;9.376;2024-01-11T09:00:15;99728.47;;;-0.54;60.43
13312;BME280;34033;48.672;9.376;2024-01-11T09:02:43;99713.63;;;-0.53;60.84
13312;BME280;34033;48.672;9.376;2024-01-11T09:05:09;99709.25;;;-0.54;60.47
13312;BME280;34033;48.672;9.376;2024-01-11T09:07:34;99721.00;;;-0.49;60.35
13312;BME280;34033;48.672;9.376;2024-01-11T09:09:59;99712.00;;;-0.54;61.47
13312;BME280;34033;48.672;9.376;2024-01-11T09:12:25;99709.56;;;-0.56;61.66
13312;BME280;34033;48.672;9.376;2024-01-11T09:14:50;99710.38;;;-0.55;61.47
13312;BME280;34033;48.672;9.376;2024-01-11T09:17:15;99712.25;;;-0.51;61.26
13312;BME280;34033;48.672;9.376;2024-01-11T09:19:41;99716.09;;;-0.52;61.69
13312;BME280;34033;48.672;9.376;2024-01-11T09:22:06;99728.25;;;-0.58;62.38
13312;BME280;34033;48.672;9.376;2024-01-11T09:24:35;99732.38;;;-0.60;61.72
13312;BME280;34033;48.672;9.376;2024-01-11T09:27:00;99727.09;;;-0.52;62.18
13312;BME280;34033;48.672;9.376;2024-01-11T09:29:26;99705.84;;;-0.41;62.31
13312;BME280;34033;48.672;9.376;2024-01-11T09:31:53;99717.28;;;-0.29;62.14
13312;BME280;34033;48.672;9.376;2024-01-11T09:34:18;99711.16;;;-0.21;62.02
13312;BME280;34033;48.672;9.376;2024-01-11T09:36:44;99715.16;;;-0.08;61.91
13312;BME280;34033;48.672;9.376;2024-01-11T09:39:10;99726.72;;;0.18;62.30
13312;BME280;34033;48.672;9.376;2024-01-11T09:41:41;99729.66;;;0.50;61.57
13312;BME280;34033;48.672;9.376;2024-01-11T09:44:08;99729.13;;;0.72;61.83
13312;BME280;34033;48.672;9.376;2024-01-11T09:46:34;99722.06;;;0.84;59.80
13312;BME280;34033;48.672;9.376;2024-01-11T09:49:00;99727.13;;;0.77;59.80
13312;BME280;34033;48.672;9.376;2024-01-11T09:51:29;99722.69;;;0.81;59.02
13312;BME280;34033;48.672;9.376;2024-01-11T09:53:55;99725.13;;;0.83;59.08
13312;BME280;34033;48.672;9.376;2024-01-11T09:56:21;99722.94;;;1.04;59.86
13312;BME280;34033;48.672;9.376;2024-01-11T09:58:49;99718.38;;;1.13;59.93
13312;BME280;34033;48.672;9.376;2024-01-11T10:01:15;99716.38;;;1.18;59.12
13312;BME280;34033;48.672;9.376;2024-01-11T10:03:41;99718.69;;;1.30;58.95
13312;BME280;34033;48.672;9.376;2024-01-11T10:06:10;99721.19;;;1.45;59.09
13312;BME280;34033;48.672;9.376;2024-01-11T10:08:35;99719.84;;;1.61;58.16
13312;BME280;34033;48.672;9.376;2024-01-11T10:11:02;99713.47;;;1.80;58.18
13312;BME280;34033;48.672;9.376;2024-01-11T10:13:29;99708.69;;;1.99;57.81
13312;BME280;34033;48.672;9.376;2024-01-11T10:16:11;99707.28;;;2.01;57.18
13312;BME280;34033;48.672;9.376;2024-01-11T10:18:41;99704.34;;;2.12;57.53
13312;BME280;34033;48.672;9.376;2024-01-11T10:21:06;99697.50;;;2.09;56.51
13312;BME280;34033;48.672;9.376;2024-01-11T10:23:35;99690.13;;;2.04;56.66
13312;BME280;34033;48.672;9.376;2024-01-11T10:26:00;99682.16;;;2.03;56.93
13312;BME280;34033;48.672;9.376;2024-01-11T10:28:26;99683.59;;;2.00;56.83
13312;BME280;34033;48.672;9.376;2024-01-11T10:30:52;99680.72;;;2.05;56.72
13312;BME280;34033;48.672;9.376;2024-01-11T10:33:22;99683.28;;;2.16;57.09
13312;BME280;34033;48.672;9.376;2024-01-11T10:35:48;99667.97;;;2.23;56.37
13312;BME280;34033;48.672;9.376;2024-01-11T10:38:15;99671.53;;;2.10;56.59
13312;BME280;34033;48.672;9.376;2024-01-11T10:40:42;99668.56;;;2.06;57.19
13312;BME280;34033;48.672;9.376;2024-01-11T10:43:09;99674.00;;;2.12;57.16
13312;BME280;34033;48.672;9.376;2024-01-11T10:45:37;99668.50;;;2.25;57.34
13312;BME280;34033;48.672;9.376;2024-01-11T10:48:07;99665.00;;;2.33;56.48
13312;BME280;34033;48.672;9.376;2024-01-11T10:50:36;99666.66;;;2.48;56.31
13312;BME280;34033;48.672;9.376;2024-01-11T10:55:55;99675.50;;;2.86;55.92
13312;BME280;34033;48.672;9.376;2024-01-11T10:58:24;99680.06;;;3.04;55.20
13312;BME280;34033;48.672;9.376;2024-01-11T11:00:53;99676.97;;;3.19;54.54
13312;BME280;34033;48.672;9.376;2024-01-11T11:03:20;99676.72;;;3.29;54.26
13312;BME280;34033;48.672;9.376;2024-01-11T11:05:48;99685.28;;;3.42;54.40
13312;BME280;34033;48.672;9.376;2024-01-11T11:08:16;99685.38;;;3.59;54.26
13312;BME280;34033;48.672;9.376;2024-01-11T11:10:43;99673.97;;;3.74;53.59
13312;BME280;34033;48.672;9.376;2024-01-11T11:13:09;99671.63;;;3.90;53.70
13312;BME280;34033;48.672;9.376;2024-01-11T11:15:35;99672.59;;;3.94;53.05
13312;BME280;34033;48.672;9.376;2024-01-11T11:18:02;99675.19;;;3.90;52.02
13312;BME280;34033;48.672;9.376;2024-01-11T11:20:29;99679.66;;;4.00;52.25
13312;BME280;34033;48.672;9.376;2024-01-11T11:23:08;99684.19;;;3.96;52.13
13312;BME280;34033;48.672;9.376;2024-01-11T11:25:35;99674.94;;;4.00;51.86
13312;BME280;34033;48.672;9.376;2024-01-11T11:28:01;99676.56;;;4.01;52.77
13312;BME280;34033;48.672;9.376;2024-01-11T11:30:38;99660.03;;;3.88;52.30
13312;BME280;34033;48.672;9.376;2024-01-11T11:33:17;99663.94;;;3.87;53.00
13312;BME280;34033;48.672;9.376;2024-01-11T11:35:43;99667.03;;;3.85;52.91
13312;BME280;34033;48.672;9.376;2024-01-11T11:38:09;99666.78;;;3.95;52.97
13312;BME280;34033;48.672;9.376;2024-01-11T11:40:41;99669.41;;;4.00;52.50
13312;BME280;34033;48.672;9.376;2024-01-11T11:43:10;99665.72;;;4.13;52.51
13312;BME280;34033;48.672;9.376;2024-01-11T11:45:35;99669.19;;;4.28;52.54
13312;BME280;34033;48.672;9.376;2024-01-11T11:51:19;99660.81;;;4.10;52.46
13312;BME280;34033;48.672;9.376;2024-01-11T11:53:47;99646.44;;;4.00;52.96
13312;BME280;34033;48.672;9.376;2024-01-11T11:56:13;99643.28;;;3.84;52.69
13312;BME280;34033;48.672;9.376;2024-01-11T11:58:42;99637.09;;;3.87;52.98
13312;BME280;34033;48.672;9.376;2024-01-11T12:01:11;99626.13;;;3.73;53.16
13312;BME280;34033;48.672;9.376;2024-01-11T12:03:38;99629.94;;;3.64;53.89
13312;BME280;34033;48.672;9.376;2024-01-11T12:06:05;99629.66;;;3.65;54.07
13312;BME280;34033;48.672;9.376;2024-01-11T12:08:31;99634.72;;;3.72;53.93
13312;BME280;34033;48.672;9.376;2024-01-11T12:10:57;99633.47;;;3.78;53.57
13312;BME280;34033;48.672;9.376;2024-01-11T12:13:26;99623.03;;;3.75;53.44
13312;BME280;34033;48.672;9.376;2024-01-11T12:15:52;99609.66;;;3.68;53.84
13312;BME280;34033;48.672;9.376;2024-01-11T12:18:17;99595.69;;;3.73;53.66
13312;BME280;34033;48.672;9.376;2024-01-11T12:20:42;99600.13;;;3.83;53.42
13312;BME280;34033;48.672;9.376;2024-01-11T12:23:08;99614.34;;;3.90;53.11
13312;BME280;34033;48.672;9.376;2024-01-11T12:25:34;99603.22;;;4.12;53.32
13312;BME280;34033;48.672;9.376;2024-01-11T12:28:00;99594.97;;;4.30;52.71
13312;BME280;34033;48.672;9.376;2024-01-11T12:30:26;99589.13;;;4.40;51.86
13312;BME280;34033;48.672;9.376;2024-01-11T12:32:54;99589.59;;;4.33;51.98
13312;BME280;34033;48.672;9.376;2024-01-11T12:35:20;99593.53;;;4.41;51.98
13312;BME280;34033;48.672;9.376;2024-01-11T12:37:58;99589.47;;;4.55;52.00
13312;BME280;34033;48.672;9.376;2024-01-11T12:40:24;99591.13;;;4.65;51.80
13312;BME280;34033;48.672;9.376;2024-01-11T12:42:49;99589.03;;;4.79;51.56
13312;BME280;34033;48.672;9.376;2024-01-11T12:45:16;99595.72;;;4.78;51.33
13312;BME280;34033;48.672;9.376;2024-01-11T12:47:42;99587.06;;;4.88;51.15
13312;BME280;34033;48.672;9.376;2024-01-11T12:50:08;99579.59;;;4.89;51.40
13312;BME280;34033;48.672;9.376;2024-01-11T12:52:33;99584.16;;;4.93;51.53
13312;BME280;34033;48.672;9.376;2024-01-11T12:54:59;99576.81;;;4.97;51.24
13312;BME280;34033;48.672;9.376;2024-01-11T12:57:25;99581.38;;;5.11;51.62
13312;BME280;34033;48.672;9.376;2024-01-11T12:59:50;99575.16;;;5.14;50.77
13312;BME280;34033;48.672;9.376;2024-01-11T13:02:16;99570.28;;;5.19;50.83
13312;BME280;34033;48.672;9.376;2024-01-11T13:04:45;99566.19;;;5.34;50.71